Time;durP1;ratioP1;P1;durP2;ratioP2;P2;SDS_P1;SDS_P2;PMS_P1;PMS_P2;Temp;Humidity;BMP_temperature;BMP_pressure;BME280_temperature;BME280_humidity;BME280_pressure;Samples;Min_cycle;Max_cycle;Signal;HPM_P1;HPM_P2
2022/09/24 00:01:39;;;;;;;9.17;5.40;;;;;;;15.40;65.10;100333.53;5001434;28;20272;-63
2022/09/24 00:04:10;;;;;;;8.60;5.00;;;;;;;15.36;65.17;100329.59;5005357;28;20210;-63
2022/09/24 00:06:43;;;;;;;7.13;4.43;;;;;;;15.32;65.37;100327.44;5006006;28;20217;-63
2022/09/24 00:09:11;;;;;;;7.97;4.47;;;;;;;15.30;65.21;100329.50;5003013;28;20612;-63
2022/09/24 00:11:39;;;;;;;9.77;5.43;;;;;;;15.30;65.47;100319.59;5004832;28;20213;-63
2022/09/24 00:14:07;;;;;;;7.50;4.77;;;;;;;15.31;65.40;100318.59;5008565;28;20710;-63
2022/09/24 00:16:39;;;;;;;9.57;5.00;;;;;;;15.31;65.69;100320.44;5009349;28;20201;-63
2022/09/24 00:19:07;;;;;;;12.93;5.03;;;;;;;15.27;65.79;100316.50;5008216;28;20256;-62
2022/09/24 00:21:36;;;;;;;9.63;5.17;;;;;;;15.21;65.83;100320.72;5007319;28;20213;-63
2022/09/24 00:24:07;;;;;;;7.57;4.97;;;;;;;15.22;65.90;100317.03;5008514;28;20685;-62
2022/09/24 00:26:50;;;;;;;7.60;4.90;;;;;;;15.21;66.56;100306.53;5009709;28;20221;-63
2022/09/24 00:29:19;;;;;;;7.87;5.17;;;;;;;15.21;66.39;100312.72;5000866;28;20358;-63
2022/09/24 00:31:47;;;;;;;9.47;5.43;;;;;;;15.17;66.52;100308.72;5006400;28;20249;-63
2022/09/24 00:34:15;;;;;;;8.37;5.13;;;;;;;15.22;66.44;100310.84;5009128;28;20284;-62
2022/09/24 00:36:43;;;;;;;8.77;5.47;;;;;;;15.18;66.85;100305.06;5007100;28;20550;-62
2022/09/24 00:39:13;;;;;;;10.87;5.27;;;;;;;15.17;67.13;100307.91;5011659;28;20212;-62
2022/09/24 00:41:43;;;;;;;16.67;5.83;;;;;;;15.15;66.93;100305.41;5007445;28;20864;-61
2022/09/24 00:44:49;;;;;;;9.07;5.73;;;;;;;15.13;66.88;100309.28;5009052;28;20221;-64
2022/09/24 00:47:25;;;;;;;9.43;5.53;;;;;;;15.00;67.79;100297.38;5006286;28;20316;-64
2022/09/24 00:50:02;;;;;;;10.77;5.00;;;;;;;15.07;67.31;100302.81;5008108;28;20197;-63
2022/09/24 00:52:30;;;;;;;8.87;4.90;;;;;;;15.08;67.49;100293.78;5007676;28;20663;-63
2022/09/24 00:55:00;;;;;;;10.57;5.40;;;;;;;15.03;67.80;100290.84;5006463;28;20267;-63
2022/09/24 00:57:28;;;;;;;8.47;5.67;;;;;;;15.00;68.10;100280.53;5009715;28;20205;-63
2022/09/24 00:59:56;;;;;;;11.63;5.50;;;;;;;14.98;67.75;100279.88;5008228;28;20213;-63
2022/09/24 01:02:24;;;;;;;10.03;5.63;;;;;;;14.96;67.79;100272.03;5009215;28;20216;-63
2022/09/24 01:04:53;;;;;;;10.27;5.50;;;;;;;14.96;67.48;100268.53;5007768;28;20214;-63
2022/09/24 01:07:24;;;;;;;10.90;5.50;;;;;;;14.92;67.76;100259.25;5005698;28;20307;-63
2022/09/24 01:09:52;;;;;;;11.33;5.40;;;;;;;14.91;67.65;100257.59;5003658;28;20214;-63
2022/09/24 01:12:32;;;;;;;10.53;4.90;;;;;;;14.91;67.92;100262.91;5009474;28;20221;-63
2022/09/24 01:15:11;;;;;;;8.57;4.80;;;;;;;14.97;67.52;100259.53;5006100;28;20224;-62
2022/09/24 01:17:49;;;;;;;9.90;5.47;;;;;;;14.87;67.37;100257.09;5007360;28;20202;-62
2022/09/24 01:20:45;;;;;;;7.67;4.87;;;;;;;14.71;68.21;100269.75;5007440;28;20708;-63
2022/09/24 01:23:36;;;;;;;8.77;5.13;;;;;;;14.64;68.84;100265.16;5009551;28;20202;-62
2022/09/24 01:26:18;;;;;;;10.50;5.17;;;;;;;14.62;68.85;100256.50;5002746;28;20213;-62
2022/09/24 01:29:05;;;;;;;7.87;4.87;;;;;;;14.69;68.40;100262.75;5007603;28;20212;-63
2022/09/24 01:31:39;;;;;;;9.60;4.77;;;;;;;14.65;68.59;100261.47;5003632;28;20259;-63
2022/09/24 01:34:11;;;;;;;8.60;4.93;;;;;;;14.60;68.85;100263.03;5008377;28;20215;-63
2022/09/24 01:36:40;;;;;;;8.07;5.00;;;;;;;14.59;68.50;100251.53;5005854;28;20202;-63
2022/09/24 01:39:08;;;;;;;10.83;5.10;;;;;;;14.56;68.70;100251.03;5007464;28;20198;-62
2022/09/24 01:41:38;;;;;;;7.83;4.30;;;;;;;14.41;69.40;100248.34;5002967;28;20275;-63
2022/09/24 01:44:06;;;;;;;10.33;5.40;;;;;;;14.32;69.85;100244.88;5006976;28;20235;-63
2022/09/24 01:46:38;;;;;;;8.17;5.13;;;;;;;14.39;69.39;100247.69;5007952;28;20662;-63
2022/09/24 01:49:06;;;;;;;10.43;5.50;;;;;;;14.46;69.59;100242.44;5007304;28;20623;-63
2022/09/24 01:51:38;;;;;;;9.87;5.50;;;;;;;14.50;69.43;100249.09;5010680;28;20207;-63
2022/09/24 01:54:11;;;;;;;8.37;5.40;;;;;;;14.42;69.84;100244.66;5007514;28;20266;-63
2022/09/24 01:56:45;;;;;;;11.70;5.60;;;;;;;14.41;69.75;100243.00;5008059;28;20616;-63
2022/09/24 01:59:16;;;;;;;13.13;5.77;;;;;;;14.43;69.57;100240.97;5007571;28;20264;-62
2022/09/24 02:01:52;;;;;;;9.37;4.87;;;;;;;14.35;69.74;100233.00;5005498;28;20247;-64
2022/09/24 02:04:22;;;;;;;8.37;5.10;;;;;;;14.39;69.52;100218.34;5008865;28;21601;-64
2022/09/24 02:06:55;;;;;;;8.03;4.97;;;;;;;14.32;69.87;100218.19;5006851;28;20642;-63
2022/09/24 02:09:29;;;;;;;8.77;4.83;;;;;;;14.33;69.69;100224.34;5008098;28;20232;-62
2022/09/24 02:12:01;;;;;;;7.70;5.00;;;;;;;14.31;69.95;100227.19;5004577;28;20263;-62
2022/09/24 02:14:32;;;;;;;7.27;4.30;;;;;;;14.41;69.25;100216.31;5007508;28;20284;-63
2022/09/24 02:17:04;;;;;;;9.70;5.53;;;;;;;14.31;69.71;100221.03;5006128;28;20209;-63
2022/09/24 02:19:36;;;;;;;9.87;6.33;;;;;;;14.22;70.21;100219.44;5007976;28;20216;-63
2022/09/24 02:22:06;;;;;;;12.53;6.20;;;;;;;14.16;70.52;100220.94;5006055;28;20633;-62
2022/09/24 02:24:42;;;;;;;9.30;4.77;;;;;;;14.13;70.62;100223.16;5006734;28;20212;-64
2022/09/24 02:27:10;;;;;;;8.47;5.27;;;;;;;14.09;70.65;100232.50;5006968;28;20215;-63
2022/09/24 02:29:37;;;;;;;10.87;4.90;;;;;;;14.05;70.97;100239.22;5006044;28;20243;-63
2022/09/24 02:32:10;;;;;;;9.03;4.97;;;;;;;13.97;71.21;100241.94;5007881;28;20251;-63
2022/09/24 02:34:42;;;;;;;9.37;5.90;;;;;;;13.95;71.21;100239.44;5006414;28;20205;-64
2022/09/24 02:37:12;;;;;;;7.50;5.37;;;;;;;13.85;72.02;100241.47;5004256;28;20211;-61
2022/09/24 02:39:40;;;;;;;11.77;5.47;;;;;;;13.78;71.97;100224.53;5009677;28;20193;-64
2022/09/24 02:42:10;;;;;;;9.97;5.53;;;;;;;13.87;71.79;100231.47;5005492;28;20659;-64
2022/09/24 02:44:38;;;;;;;10.40;5.23;;;;;;;13.95;71.01;100223.44;5010510;28;20240;-62
2022/09/24 02:47:07;;;;;;;14.50;5.43;;;;;;;13.91;71.46;100227.44;5008461;28;20255;-62
2022/09/24 02:49:35;;;;;;;12.77;5.67;;;;;;;13.90;71.07;100229.28;5007968;28;20254;-62
2022/09/24 02:52:03;;;;;;;8.87;5.27;;;;;;;13.91;71.21;100225.63;5004065;28;20216;-63
2022/09/24 02:54:31;;;;;;;9.50;5.73;;;;;;;13.96;70.77;100217.09;5015862;28;20258;-63
2022/09/24 02:56:58;;;;;;;11.43;6.03;;;;;;;13.98;70.58;100219.59;5013879;28;20243;-62
2022/09/24 02:59:26;;;;;;;8.87;5.27;;;;;;;14.04;70.01;100227.72;5011526;28;20212;-62
2022/09/24 03:01:54;;;;;;;20.43;6.27;;;;;;;14.04;69.80;100226.88;5009609;28;20239;-63
2022/09/24 03:04:24;;;;;;;7.83;5.50;;;;;;;13.95;70.34;100226.09;5009801;28;20208;-62
2022/09/24 03:06:52;;;;;;;14.50;5.47;;;;;;;13.85;70.75;100221.00;5012779;28;20229;-62
2022/09/24 03:09:19;;;;;;;9.03;5.53;;;;;;;13.77;70.96;100210.38;5008567;28;20243;-62
2022/09/24 03:11:47;;;;;;;12.83;6.00;;;;;;;13.81;70.84;100213.50;5006452;28;20555;-62
2022/09/24 03:14:15;;;;;;;7.40;4.97;;;;;;;13.81;70.79;100214.34;5007463;28;20212;-63
2022/09/24 03:16:42;;;;;;;6.93;4.43;;;;;;;13.73;71.13;100217.06;5005604;28;20211;-62
2022/09/24 03:19:10;;;;;;;7.57;5.30;;;;;;;13.77;70.91;100207.72;5006858;28;20289;-63
2022/09/24 03:21:39;;;;;;;8.97;5.20;;;;;;;13.77;70.74;100199.72;5005223;28;20676;-62
2022/09/24 03:24:07;;;;;;;8.73;5.53;;;;;;;13.75;70.98;100199.06;5007179;28;20605;-62
2022/09/24 03:26:35;;;;;;;10.87;5.87;;;;;;;13.78;71.07;100197.88;5006782;28;20209;-62
2022/09/24 03:29:03;;;;;;;11.80;6.20;;;;;;;13.74;70.99;100197.41;5006330;28;20240;-62
2022/09/24 03:31:29;;;;;;;8.07;5.50;;;;;;;13.62;71.59;100198.81;5000840;28;20246;-62
2022/09/24 03:33:58;;;;;;;10.60;6.27;;;;;;;13.55;72.29;100197.81;5005464;28;20213;-62
2022/09/24 03:36:26;;;;;;;8.87;5.90;;;;;;;13.54;72.39;100191.66;5007262;28;20213;-63
2022/09/24 03:38:56;;;;;;;11.87;6.90;;;;;;;13.60;72.44;100192.00;5005841;28;20212;-62
2022/09/24 03:41:25;;;;;;;10.97;6.27;;;;;;;13.60;72.27;100195.47;5004492;28;20884;-63
2022/09/24 03:43:53;;;;;;;10.07;5.60;;;;;;;13.49;72.67;100190.53;5004280;28;20217;-62
2022/09/24 03:46:23;;;;;;;11.33;5.97;;;;;;;13.39;73.23;100189.91;5005893;28;20219;-62
2022/09/24 03:48:51;;;;;;;8.47;6.10;;;;;;;13.41;73.08;100190.56;5008289;28;20329;-62
2022/09/24 03:51:19;;;;;;;10.17;6.00;;;;;;;13.34;73.53;100190.44;5007137;28;20212;-62
2022/09/24 03:53:48;;;;;;;12.70;6.57;;;;;;;13.35;73.20;100181.44;5007233;28;20218;-62
2022/09/24 03:56:17;;;;;;;12.43;5.73;;;;;;;13.38;73.29;100177.59;5008694;28;20207;-63
2022/09/24 03:58:46;;;;;;;11.67;6.23;;;;;;;13.43;72.80;100177.91;5010815;28;20650;-63
2022/09/24 04:01:20;;;;;;;11.50;6.23;;;;;;;13.43;72.86;100180.59;5008440;28;20564;-62
2022/09/24 04:03:48;;;;;;;12.60;6.47;;;;;;;13.38;73.21;100180.25;5008421;28;20811;-62
2022/09/24 04:06:17;;;;;;;8.37;5.27;;;;;;;13.38;72.85;100182.91;5009263;28;20273;-62
2022/09/24 04:08:52;;;;;;;9.63;5.33;;;;;;;13.48;72.08;100181.72;5007346;28;20218;-63
2022/09/24 04:11:22;;;;;;;12.83;4.87;;;;;;;13.43;71.81;100175.25;5008584;28;20670;-63
2022/09/24 04:13:49;;;;;;;10.40;6.20;;;;;;;13.32;72.11;100186.28;5009576;28;20216;-63
2022/09/24 04:16:17;;;;;;;10.13;5.40;;;;;;;13.31;72.16;100174.78;5010917;28;20651;-63
2022/09/24 04:18:47;;;;;;;8.23;5.30;;;;;;;13.38;71.51;100174.94;5009260;28;20223;-63
2022/09/24 04:21:15;;;;;;;10.53;5.93;;;;;;;13.42;71.16;100178.91;5009937;28;20215;-63
2022/09/24 04:23:42;;;;;;;9.43;5.63;;;;;;;13.46;71.17;100182.88;5008658;28;20203;-63
2022/09/24 04:26:11;;;;;;;8.80;5.20;;;;;;;13.51;70.34;100178.72;5008464;28;20221;-63
2022/09/24 04:28:40;;;;;;;11.00;5.17;;;;;;;13.50;69.88;100178.88;5008308;28;20215;-63
2022/09/24 04:31:08;;;;;;;6.83;4.00;;;;;;;13.52;69.84;100171.56;5008133;28;20283;-63
2022/09/24 04:33:35;;;;;;;11.50;4.83;;;;;;;13.50;69.73;100170.88;4988618;28;20825;-61
2022/09/24 04:36:03;;;;;;;9.03;5.70;;;;;;;13.42;70.18;100170.94;4985179;28;20206;-61
2022/09/24 04:38:31;;;;;;;8.83;4.57;;;;;;;13.31;70.84;100173.97;4988639;28;20292;-62
2022/09/24 04:41:05;;;;;;;8.10;4.57;;;;;;;13.21;71.23;100182.16;4988345;28;20223;-61
2022/09/24 04:43:33;;;;;;;6.93;4.47;;;;;;;13.13;72.00;100168.84;4985766;28;20221;-61
2022/09/24 04:46:02;;;;;;;10.10;5.00;;;;;;;13.13;71.80;100167.03;4989249;28;20206;-62
2022/09/24 04:48:30;;;;;;;11.13;5.37;;;;;;;13.15;71.71;100167.72;4988285;28;20250;-62
2022/09/24 04:50:57;;;;;;;7.10;4.50;;;;;;;13.10;71.70;100167.38;4989358;28;20237;-62
2022/09/24 04:53:25;;;;;;;7.83;4.67;;;;;;;13.08;71.36;100164.06;4988603;28;20262;-62
2022/09/24 04:55:53;;;;;;;7.73;4.83;;;;;;;13.04;71.30;100170.69;4989265;28;20263;-63
2022/09/24 04:58:20;;;;;;;7.27;4.33;;;;;;;13.14;71.03;100173.19;4990957;28;20211;-62
2022/09/24 05:00:50;;;;;;;9.80;4.80;;;;;;;13.15;70.92;100175.69;4986524;28;20203;-62
2022/09/24 05:03:20;;;;;;;8.00;4.80;;;;;;;13.12;71.00;100168.00;4989988;28;20216;-64
2022/09/24 05:05:48;;;;;;;6.33;4.10;;;;;;;13.02;70.77;100172.69;4988863;28;20701;-62
2022/09/24 05:08:16;;;;;;;9.00;4.47;;;;;;;13.00;71.12;100171.22;4990229;28;20210;-62
2022/09/24 05:10:44;;;;;;;9.20;4.37;;;;;;;13.08;70.86;100179.19;4987711;28;20241;-62
2022/09/24 05:13:11;;;;;;;8.83;4.50;;;;;;;13.12;70.47;100172.50;4992903;28;20210;-62
2022/09/24 05:15:40;;;;;;;7.23;4.73;;;;;;;13.09;70.72;100171.03;4989331;28;20254;-63
2022/09/24 05:18:10;;;;;;;9.57;4.27;;;;;;;13.10;70.75;100178.03;4987399;28;20217;-62
2022/09/24 05:20:39;;;;;;;8.53;4.93;;;;;;;13.09;70.87;100184.34;4991780;28;20207;-62
2022/09/24 05:23:07;;;;;;;9.27;4.90;;;;;;;13.04;71.20;100192.00;4988574;28;20223;-62
2022/09/24 05:27:07;;;;;;;7.33;4.70;;;;;;;13.03;71.37;100187.66;4988955;28;20209;-62
2022/09/24 05:28:22;;;;;;;8.23;5.07;;;;;;;13.09;71.12;100184.34;4992946;28;20251;-62
2022/09/24 05:30:50;;;;;;;9.67;4.90;;;;;;;13.04;71.33;100189.34;4990604;28;20230;-62
2022/09/24 05:33:18;;;;;;;6.33;4.30;;;;;;;13.06;71.70;100192.66;4991648;28;20262;-63
2022/09/24 05:35:53;;;;;;;9.93;5.00;;;;;;;13.08;71.58;100185.34;4991110;28;20827;-62
2022/09/24 05:38:20;;;;;;;8.87;5.00;;;;;;;13.07;71.85;100186.34;4990974;28;20675;-63
2022/09/24 05:40:48;;;;;;;8.03;5.03;;;;;;;13.04;71.93;100189.34;4987963;28;20259;-63
2022/09/24 05:43:18;;;;;;;9.20;5.13;;;;;;;13.02;71.85;100191.31;4987705;28;20646;-63
2022/09/24 05:45:46;;;;;;;10.30;4.90;;;;;;;13.03;71.72;100197.47;4988222;28;20634;-62
2022/09/24 05:48:14;;;;;;;7.83;4.80;;;;;;;12.99;72.19;100212.97;4988429;28;20218;-63
2022/09/24 05:50:41;;;;;;;12.17;5.10;;;;;;;13.06;72.14;100213.97;4987697;28;20912;-63
2022/09/24 05:53:10;;;;;;;11.27;5.30;;;;;;;13.14;71.74;100211.31;4990128;28;20219;-62
2022/09/24 05:55:38;;;;;;;9.10;5.30;;;;;;;13.28;71.12;100203.63;4985019;28;20628;-62
2022/09/24 05:58:07;;;;;;;8.03;4.97;;;;;;;13.38;70.57;100201.56;4987385;28;20246;-63
2022/09/24 06:00:35;;;;;;;8.82;5.20;;;;;;;13.53;69.80;100195.34;4985284;28;20447;-64
2022/09/24 06:03:06;;;;;;;7.43;4.73;;;;;;;13.59;69.49;100209.81;4985223;28;20209;-64
2022/09/24 06:05:34;;;;;;;9.00;4.87;;;;;;;13.60;69.68;100200.81;4988379;28;20615;-64
2022/09/24 06:08:02;;;;;;;10.40;5.07;;;;;;;13.48;70.51;100195.03;4986958;28;20793;-64
2022/09/24 06:10:32;;;;;;;8.57;5.17;;;;;;;13.48;70.72;100204.84;4991147;28;20293;-64
2022/09/24 06:13:00;;;;;;;8.93;5.07;;;;;;;13.47;70.68;100201.34;4989913;28;20211;-64
2022/09/24 06:15:28;;;;;;;7.07;4.37;;;;;;;13.50;70.70;100205.50;4989447;28;20602;-63
2022/09/24 06:17:55;;;;;;;12.13;4.80;;;;;;;13.53;70.48;100194.53;4989891;28;20206;-64
2022/09/24 06:20:23;;;;;;;10.67;5.33;;;;;;;13.55;70.39;100197.81;4991571;28;20698;-64
2022/09/24 06:22:54;;;;;;;8.70;4.90;;;;;;;13.71;70.18;100200.44;4991185;28;20665;-65
2022/09/24 06:25:22;;;;;;;7.20;4.90;;;;;;;13.80;70.08;100202.03;4991230;28;20239;-64
2022/09/24 06:27:59;;;;;;;7.17;4.57;;;;;;;13.84;69.93;100207.84;4989756;28;20230;-65
2022/09/24 06:30:28;;;;;;;6.57;4.70;;;;;;;13.82;70.00;100209.84;4988913;28;20232;-65
2022/09/24 06:33:01;;;;;;;11.27;5.37;;;;;;;13.87;69.53;100207.50;4999079;28;20829;-64
2022/09/24 06:35:29;;;;;;;11.73;5.50;;;;;;;13.87;69.50;100213.66;5002512;28;20223;-65
2022/09/24 06:37:56;;;;;;;8.67;5.27;;;;;;;13.94;69.57;100232.44;5005745;28;20223;-64
2022/09/24 06:40:25;;;;;;;13.10;5.43;;;;;;;13.96;69.80;100226.94;5005153;28;20808;-64
2022/09/24 06:42:54;;;;;;;9.17;5.33;;;;;;;13.98;70.00;100224.94;5007263;28;20684;-65
2022/09/24 06:45:22;;;;;;;15.80;6.03;;;;;;;13.98;69.96;100223.09;5003399;28;20208;-65
2022/09/24 06:47:53;;;;;;;9.57;5.10;;;;;;;13.96;70.37;100221.59;5004925;28;20805;-64
2022/09/24 06:50:22;;;;;;;9.80;5.23;;;;;;;14.04;70.41;100234.88;5005517;28;20275;-64
2022/09/24 06:52:50;;;;;;;12.47;6.43;;;;;;;14.08;69.97;100234.34;5008480;28;20210;-66
2022/09/24 06:55:18;;;;;;;13.57;5.60;;;;;;;14.10;69.85;100229.66;5007850;28;20214;-64
2022/09/24 06:57:46;;;;;;;10.20;5.50;;;;;;;14.18;69.86;100223.44;5004481;28;20213;-64
2022/09/24 07:00:16;;;;;;;11.73;5.57;;;;;;;14.23;70.28;100231.75;5003647;28;20248;-63
2022/09/24 07:02:43;;;;;;;8.67;5.63;;;;;;;14.21;70.54;100237.28;5007567;28;20205;-62
2022/09/24 07:05:11;;;;;;;15.53;6.60;;;;;;;14.27;70.46;100233.88;5008682;28;20275;-65
2022/09/24 07:07:40;;;;;;;12.63;6.20;;;;;;;14.30;70.39;100235.38;5006361;28;20209;-64
2022/09/24 07:10:09;;;;;;;11.00;6.17;;;;;;;14.26;70.38;100234.88;5007180;28;20216;-64
2022/09/24 07:12:37;;;;;;;10.17;6.97;;;;;;;14.30;70.84;100235.38;5009327;28;20216;-63
2022/09/24 07:15:05;;;;;;;14.63;6.30;;;;;;;14.37;70.58;100228.31;5010451;28;20295;-63
2022/09/24 07:17:35;;;;;;;13.80;6.70;;;;;;;14.43;70.12;100232.13;5008573;28;20209;-64
2022/09/24 07:20:03;;;;;;;9.80;6.87;;;;;;;14.58;69.80;100233.84;5009679;28;20843;-64
2022/09/24 07:22:31;;;;;;;11.50;7.37;;;;;;;14.66;69.67;100225.78;5001449;28;20690;-65
2022/09/24 07:24:59;;;;;;;12.30;7.83;;;;;;;14.73;69.73;100235.72;5002664;28;20673;-64
2022/09/24 07:27:26;;;;;;;11.20;7.10;;;;;;;14.77;69.77;100237.88;5007806;28;20639;-64
2022/09/24 07:29:54;;;;;;;11.93;7.90;;;;;;;14.83;70.41;100238.97;5010489;28;20670;-65
2022/09/24 07:32:22;;;;;;;10.50;6.97;;;;;;;14.87;70.42;100246.44;5009908;28;20240;-64
2022/09/24 07:34:57;;;;;;;13.10;6.63;;;;;;;14.87;70.75;100248.25;5022613;28;20295;-64
2022/09/24 07:37:25;;;;;;;10.53;6.57;;;;;;;14.89;70.25;100255.09;4996473;28;20209;-63
2022/09/24 07:39:53;;;;;;;10.73;8.20;;;;;;;14.87;70.88;100258.94;5008949;28;20205;-64
2022/09/24 07:42:20;;;;;;;13.43;7.67;;;;;;;14.85;71.14;100260.97;5005725;28;20258;-64
2022/09/24 07:44:49;;;;;;;13.33;7.63;;;;;;;14.88;71.56;100260.59;5010293;28;20221;-63
2022/09/24 07:47:17;;;;;;;12.80;7.80;;;;;;;14.92;71.22;100257.41;5005974;28;20666;-64
2022/09/24 07:49:45;;;;;;;13.90;7.90;;;;;;;15.00;70.82;100253.81;5009213;28;20212;-66
2022/09/24 07:52:14;;;;;;;13.20;8.53;;;;;;;15.09;70.89;100258.06;5007609;28;20243;-65
2022/09/24 07:54:41;;;;;;;14.50;8.30;;;;;;;15.12;70.96;100265.72;5009394;28;20622;-65
2022/09/24 07:57:12;;;;;;;12.60;8.07;;;;;;;15.18;70.24;100262.31;5009749;28;20212;-65
2022/09/24 07:59:40;;;;;;;9.70;7.50;;;;;;;15.33;68.47;100265.00;5009808;28;20205;-65
2022/09/24 08:02:15;;;;;;;17.67;11.13;;;;;;;15.49;69.36;100247.94;5007900;28;20229;-65
2022/09/24 08:04:43;;;;;;;11.40;8.43;;;;;;;15.57;68.25;100250.56;5002943;28;20201;-64
2022/09/24 08:07:11;;;;;;;13.47;8.70;;;;;;;15.67;68.63;100253.75;5009696;28;20206;-65
2022/09/24 08:09:40;;;;;;;14.00;8.00;;;;;;;15.80;67.10;100257.44;5009996;28;20202;-64
2022/09/24 08:12:09;;;;;;;12.27;7.93;;;;;;;15.91;68.07;100253.47;5009640;28;20229;-64
2022/09/24 08:14:36;;;;;;;16.30;9.00;;;;;;;16.02;67.24;100247.63;5010053;28;20654;-64
2022/09/24 08:17:04;;;;;;;12.87;8.47;;;;;;;16.11;66.87;100243.81;5008766;28;20658;-64
2022/09/24 08:19:32;;;;;;;11.33;8.37;;;;;;;16.22;66.23;100244.34;5009555;28;20210;-63
2022/09/24 08:22:00;;;;;;;13.73;8.50;;;;;;;16.24;66.75;100250.34;5009162;28;20576;-64
2022/09/24 08:24:28;;;;;;;12.03;8.10;;;;;;;16.24;66.53;100245.81;5009940;28;20643;-65
2022/09/24 08:26:58;;;;;;;13.07;7.73;;;;;;;16.18;67.25;100239.34;5007717;28;20205;-64
2022/09/24 08:29:25;;;;;;;12.67;8.83;;;;;;;16.14;66.64;100242.59;5009810;28;20209;-64
2022/09/24 08:31:53;;;;;;;15.30;8.90;;;;;;;16.21;67.12;100242.66;5007824;28;20589;-64
2022/09/24 08:34:21;;;;;;;12.17;7.77;;;;;;;16.17;66.77;100253.78;5010151;28;20263;-64
2022/09/24 08:36:49;;;;;;;16.00;8.63;;;;;;;16.14;67.47;100248.78;5012963;28;20264;-64
2022/09/24 08:39:16;;;;;;;10.20;7.97;;;;;;;16.08;66.50;100238.84;5012684;28;20217;-65
2022/09/24 08:41:55;;;;;;;13.10;8.50;;;;;;;16.05;66.31;100243.75;5012685;28;20275;-65
2022/09/24 08:47:33;;;;;;;13.47;8.20;;;;;;;15.97;66.83;100252.72;5009891;28;20210;-64
2022/09/24 08:50:08;;;;;;;13.30;9.93;;;;;;;15.95;67.83;100252.06;5004542;28;20236;-64
2022/09/24 08:52:48;;;;;;;12.47;9.20;;;;;;;15.91;66.42;100258.81;5013008;28;20260;-64
2022/09/24 08:55:20;;;;;;;12.67;9.10;;;;;;;15.90;67.74;100256.31;5012917;28;20272;-64
2022/09/24 08:57:55;;;;;;;17.00;8.20;;;;;;;15.90;67.46;100257.16;5012946;28;20296;-64
2022/09/24 09:00:24;;;;;;;15.00;10.13;;;;;;;15.91;67.76;100253.47;5011771;28;20283;-64
2022/09/24 09:03:01;;;;;;;21.43;10.17;;;;;;;15.91;68.25;100253.47;5011750;28;20205;-64
2022/09/24 09:05:49;;;;;;;11.83;8.40;;;;;;;15.93;67.70;100256.75;5012651;28;20641;-63
2022/09/24 09:08:28;;;;;;;16.67;9.07;;;;;;;15.97;67.30;100257.22;5012943;28;20209;-64
2022/09/24 09:11:21;;;;;;;16.93;10.00;;;;;;;16.10;67.55;100252.84;5011527;28;20217;-66
2022/09/24 09:13:54;;;;;;;13.00;10.27;;;;;;;16.23;67.13;100262.03;5013204;28;20651;-65
2022/09/24 09:16:27;;;;;;;15.20;9.90;;;;;;;16.27;66.38;100260.66;5012542;28;20287;-65
2022/09/24 09:19:00;;;;;;;12.60;9.63;;;;;;;16.32;67.51;100266.25;5007581;28;20213;-64
2022/09/24 09:21:34;;;;;;;21.40;11.13;;;;;;;16.45;67.38;100266.38;5012323;28;20726;-64
2022/09/24 09:24:04;;;;;;;15.77;9.60;;;;;;;16.59;65.52;100262.00;5002535;28;20546;-64
2022/09/24 09:26:33;;;;;;;11.93;8.93;;;;;;;16.74;64.95;100257.41;5015788;28;20263;-65
2022/09/24 09:29:01;;;;;;;13.30;9.97;;;;;;;16.98;64.09;100257.00;5011494;28;20205;-63
2022/09/24 09:31:43;;;;;;;12.93;9.17;;;;;;;17.16;62.78;100248.47;5011666;28;20234;-65
2022/09/24 09:34:28;;;;;;;15.50;9.90;;;;;;;17.36;63.41;100253.94;4999979;28;20222;-63
2022/09/24 09:37:10;;;;;;;12.73;9.93;;;;;;;17.54;61.86;100251.59;5013020;28;20209;-63
2022/09/24 09:39:45;;;;;;;16.43;9.60;;;;;;;17.61;61.61;100242.53;5012657;28;20666;-65
2022/09/24 09:42:26;;;;;;;10.97;7.70;;;;;;;17.75;61.54;100253.38;5014375;28;20211;-64
2022/09/24 09:44:54;;;;;;;20.87;11.57;;;;;;;18.00;61.66;100259.84;5012952;28;20213;-64
2022/09/24 09:47:38;;;;;;;17.63;11.80;;;;;;;17.95;60.69;100255.09;5012676;28;20552;-64
2022/09/24 09:50:15;;;;;;;15.43;10.23;;;;;;;17.66;61.54;100261.59;5012837;28;20209;-64
2022/09/24 09:52:42;;;;;;;17.40;11.80;;;;;;;17.52;62.88;100259.81;5013129;28;20637;-64
2022/09/24 09:55:21;;;;;;;15.57;10.90;;;;;;;17.45;63.55;100258.97;5011040;28;20280;-64
2022/09/24 09:57:50;;;;;;;16.53;12.03;;;;;;;17.28;63.99;100253.09;5011257;28;20270;-64
2022/09/24 10:00:33;;;;;;;20.50;12.07;;;;;;;17.17;64.50;100250.13;5011359;28;20213;-64
2022/09/24 10:03:03;;;;;;;25.93;14.07;;;;;;;17.19;64.11;100256.13;5012429;28;20206;-64
2022/09/24 10:05:31;;;;;;;16.50;12.07;;;;;;;17.11;64.36;100254.41;5012098;28;20217;-64
2022/09/24 10:07:59;;;;;;;17.23;12.20;;;;;;;17.10;64.87;100250.09;5013030;28;20276;-63
2022/09/24 10:10:29;;;;;;;17.90;11.53;;;;;;;17.15;64.49;100253.00;5012516;28;20218;-63
2022/09/24 10:13:07;;;;;;;16.07;12.50;;;;;;;17.19;64.36;100245.41;5012312;28;20671;-64
2022/09/24 10:15:48;;;;;;;14.53;10.57;;;;;;;17.18;63.95;100246.41;5012648;28;20869;-64
2022/09/24 10:18:23;;;;;;;20.50;11.70;;;;;;;17.20;65.43;100239.03;5009094;28;20213;-64
2022/09/24 10:20:51;;;;;;;16.70;11.83;;;;;;;17.28;65.29;100236.19;5018876;28;20213;-64
2022/09/24 10:23:21;;;;;;;18.13;12.70;;;;;;;17.38;64.55;100242.00;5006672;28;20568;-65
2022/09/24 10:25:52;;;;;;;23.70;13.10;;;;;;;17.36;64.65;100243.22;5010369;28;20213;-65
2022/09/24 10:31:12;;;;;;;17.13;12.80;;;;;;;17.44;64.06;100245.75;5001888;28;20276;-65
2022/09/24 10:33:43;;;;;;;21.77;13.80;;;;;;;17.52;65.32;100241.06;5012180;28;20245;-64
2022/09/24 10:36:16;;;;;;;14.73;12.00;;;;;;;17.60;64.52;100234.69;5012375;28;20217;-64
2022/09/24 10:38:44;;;;;;;17.03;12.97;;;;;;;17.74;64.75;100231.09;5012138;28;20308;-64
2022/09/24 10:41:24;;;;;;;16.60;13.23;;;;;;;17.87;64.60;100219.56;5010199;28;20301;-64
2022/09/24 10:43:55;;;;;;;21.83;12.80;;;;;;;17.95;63.41;100217.53;5020504;28;20228;-65
2022/09/24 10:46:50;;;;;;;18.73;12.73;;;;;;;17.99;63.03;100215.28;5021621;28;20213;-64
2022/09/24 10:49:33;;;;;;;18.20;12.47;;;;;;;18.05;62.08;100211.78;5021077;28;20613;-64
2022/09/24 10:52:09;;;;;;;18.03;11.07;;;;;;;18.00;62.49;100207.03;5011563;28;20621;-64
2022/09/24 10:54:50;;;;;;;19.37;11.57;;;;;;;18.19;62.04;100205.44;5012285;28;20732;-64
2022/09/24 10:57:29;;;;;;;16.27;10.23;;;;;;;18.81;59.06;100201.56;5007612;28;20217;-64
2022/09/24 11:00:04;;;;;;;14.93;10.83;;;;;;;19.05;57.67;100198.22;5001770;28;20263;-65
2022/09/24 11:03:01;;;;;;;12.97;9.60;;;;;;;19.21;55.45;100190.72;5011988;28;21857;-65
2022/09/24 11:05:35;;;;;;;16.10;10.43;;;;;;;19.39;55.78;100198.94;5007343;28;20633;-64
2022/09/24 11:08:22;;;;;;;15.53;10.37;;;;;;;19.49;56.48;100188.63;5012230;28;20209;-64
2022/09/24 11:11:18;;;;;;;16.67;11.27;;;;;;;19.54;57.27;100192.31;5017724;28;20220;-64
2022/09/24 11:13:57;;;;;;;22.10;15.07;;;;;;;19.68;56.79;100203.03;5019224;28;20675;-64
2022/09/24 11:16:50;;;;;;;22.70;15.43;;;;;;;19.75;56.46;100196.56;5011521;28;20259;-64
2022/09/24 11:19:36;;;;;;;21.20;14.23;;;;;;;19.54;57.35;100195.00;5011577;28;20213;-64
2022/09/24 11:22:12;;;;;;;19.30;13.10;;;;;;;19.27;58.30;100203.31;5010308;28;20217;-64
2022/09/24 11:25:09;;;;;;;19.40;13.43;;;;;;;19.11;58.48;100212.66;5015948;28;20255;-64
2022/09/24 11:28:02;;;;;;;19.67;12.40;;;;;;;18.95;59.47;100216.63;5015863;28;20206;-64
2022/09/24 11:30:46;;;;;;;20.97;13.93;;;;;;;18.81;60.40;100215.00;5014966;28;20650;-64
2022/09/24 11:33:27;;;;;;;19.80;12.60;;;;;;;18.77;59.67;100203.81;5004799;28;20245;-65
2022/09/24 11:36:10;;;;;;;17.30;11.37;;;;;;;18.72;59.52;100197.44;5004662;28;20205;-65
2022/09/24 11:38:58;;;;;;;14.23;10.67;;;;;;;18.76;58.89;100201.34;5018961;28;20676;-64
2022/09/24 11:41:39;;;;;;;19.57;12.87;;;;;;;18.91;57.92;100193.88;5019521;28;20245;-65
2022/09/24 11:44:38;;;;;;;18.03;12.60;;;;;;;18.89;58.52;100190.59;5011013;28;20209;-65
2022/09/24 11:47:24;;;;;;;18.57;12.37;;;;;;;18.88;58.40;100197.00;4995478;28;20209;-65